createdAt,value
2024-01-27T00:01:49.340Z,95.68
2024-01-27T00:04:18.131Z,96.85
2024-01-27T00:06:47.137Z,96.90
2024-01-27T00:09:17.535Z,96.97
2024-01-27T00:11:46.584Z,94.94
2024-01-27T00:14:15.591Z,94.42
2024-01-27T00:16:44.587Z,93.23
2024-01-27T00:19:13.678Z,93.05
2024-01-27T00:21:42.668Z,92.18
2024-01-27T00:24:11.627Z,92.04
2024-01-27T00:26:41.842Z,94.96
2024-01-27T00:29:10.674Z,96.00
2024-01-27T00:31:39.597Z,96.52
2024-01-27T00:34:08.527Z,97.93
2024-01-27T00:36:38.099Z,98.00
2024-01-27T00:39:07.208Z,98.18
2024-01-27T00:41:36.168Z,98.75
2024-01-27T00:44:06.696Z,99.12
2024-01-27T00:46:35.637Z,98.48
2024-01-27T00:49:04.561Z,98.38
2024-01-27T00:51:33.451Z,99.07
2024-01-27T00:54:02.482Z,98.30
2024-01-27T00:56:31.338Z,98.70
2024-01-27T00:59:00.200Z,99.67
2024-01-27T01:01:30.491Z,99.41
2024-01-27T01:03:59.451Z,99.95
2024-01-27T01:06:28.280Z,100.00
2024-01-27T01:08:57.306Z,100.00
2024-01-27T01:11:26.306Z,100.00
2024-01-27T01:13:55.181Z,100.00
2024-01-27T01:16:24.021Z,100.00
2024-01-27T01:18:54.252Z,100.00
2024-01-27T01:21:23.136Z,100.00
2024-01-27T01:23:51.997Z,100.00
2024-01-27T01:26:20.765Z,99.82
2024-01-27T01:28:49.589Z,99.69
2024-01-27T01:31:18.446Z,100.00
2024-01-27T01:33:47.368Z,100.00
2024-01-27T01:36:17.631Z,100.00
2024-01-27T01:38:47.137Z,100.00
2024-01-27T01:41:16.068Z,100.00
2024-01-27T01:43:44.902Z,100.00
2024-01-27T01:46:13.673Z,100.00
2024-01-27T01:48:42.781Z,100.00
2024-01-27T01:51:11.737Z,100.00
2024-01-27T01:53:41.995Z,100.00
2024-01-27T01:56:10.785Z,100.00
2024-01-27T01:58:39.523Z,100.00
2024-01-27T02:01:08.451Z,100.00
2024-01-27T02:03:37.297Z,100.00
2024-01-27T02:06:06.306Z,100.00
2024-01-27T02:08:35.025Z,100.00
2024-01-27T02:11:05.282Z,100.00
2024-01-27T02:13:34.582Z,100.00
2024-01-27T02:16:03.364Z,100.00
2024-01-27T02:18:32.240Z,100.00
2024-01-27T02:21:01.163Z,100.00
2024-01-27T02:23:30.161Z,100.00
2024-01-27T02:26:01.343Z,100.00
2024-01-27T02:28:33.184Z,100.00
2024-01-27T02:31:01.956Z,100.00
2024-01-27T02:33:30.877Z,100.00
2024-01-27T02:35:59.736Z,100.00
2024-01-27T02:38:28.485Z,100.00
2024-01-27T02:40:57.140Z,100.00
2024-01-27T02:43:27.301Z,100.00
2024-01-27T02:45:56.585Z,100.00
2024-01-27T02:48:25.404Z,100.00
2024-01-27T02:50:54.236Z,100.00
2024-01-27T02:53:22.965Z,100.00
2024-01-27T02:55:51.635Z,100.00
2024-01-27T02:58:20.321Z,100.00
2024-01-27T03:00:50.774Z,100.00
2024-01-27T03:03:19.604Z,100.00
2024-01-27T03:05:48.532Z,100.00
2024-01-27T03:08:17.241Z,100.00
2024-01-27T03:10:45.982Z,100.00
2024-01-27T03:13:14.741Z,100.00
2024-01-27T03:15:44.266Z,100.00
2024-01-27T03:18:14.699Z,100.00
2024-01-27T03:20:43.472Z,100.00
2024-01-27T03:23:12.292Z,100.00
2024-01-27T03:25:41.018Z,100.00
2024-01-27T03:28:09.770Z,100.00
2024-01-27T03:30:38.558Z,100.00
2024-01-27T03:33:11.815Z,100.00
2024-01-27T03:35:42.221Z,100.00
2024-01-27T03:38:10.937Z,100.00
2024-01-27T03:40:39.668Z,100.00
2024-01-27T03:43:08.354Z,100.00
2024-01-27T03:45:37.198Z,100.00
2024-01-27T03:48:07.073Z,100.00
2024-01-27T03:50:35.883Z,100.00
2024-01-27T03:53:06.106Z,100.00
2024-01-27T03:55:35.503Z,100.00
2024-01-27T03:58:04.320Z,100.00
2024-01-27T04:00:34.660Z,100.00
2024-01-27T04:03:03.831Z,100.00
2024-01-27T04:05:32.997Z,100.00
2024-01-27T04:08:01.656Z,100.00
2024-01-27T04:10:31.768Z,100.00
2024-01-27T04:13:00.547Z,100.00
2024-01-27T04:15:29.722Z,100.00
2024-01-27T04:17:58.848Z,100.00
2024-01-27T04:20:27.637Z,100.00
2024-01-27T04:22:56.347Z,100.00
2024-01-27T04:25:25.084Z,100.00
2024-01-27T04:27:55.204Z,100.00
2024-01-27T04:30:24.026Z,100.00
2024-01-27T04:32:53.261Z,100.00
2024-01-27T04:35:22.291Z,100.00
2024-01-27T04:37:52.318Z,100.00
2024-01-27T04:40:21.282Z,100.00
2024-01-27T04:42:50.032Z,100.00
2024-01-27T04:45:20.257Z,100.00
2024-01-27T04:47:49.031Z,100.00
2024-01-27T04:50:17.983Z,100.00
2024-01-27T04:52:47.447Z,100.00
2024-01-27T04:55:16.323Z,100.00
2024-01-27T04:57:45.016Z,100.00
2024-01-27T05:00:15.347Z,100.00
2024-01-27T05:02:45.488Z,100.00
2024-01-27T05:05:14.583Z,100.00
2024-01-27T05:07:43.270Z,100.00
2024-01-27T05:10:12.881Z,100.00
2024-01-27T05:12:41.682Z,100.00
2024-01-27T05:15:12.569Z,100.00
2024-01-27T05:17:41.367Z,100.00
2024-01-27T05:20:12.378Z,100.00
2024-01-27T05:22:41.121Z,100.00
2024-01-27T05:25:10.933Z,100.00
2024-01-27T05:27:39.779Z,100.00
2024-01-27T05:30:09.987Z,100.00
2024-01-27T05:32:39.194Z,100.00
2024-01-27T05:35:09.121Z,100.00
2024-01-27T05:37:40.144Z,100.00
2024-01-27T05:40:11.700Z,100.00
2024-01-27T05:42:41.628Z,100.00
2024-01-27T05:45:11.529Z,100.00
2024-01-27T05:47:40.454Z,100.00
2024-01-27T05:50:10.108Z,100.00
2024-01-27T05:52:40.155Z,100.00
2024-01-27T05:55:09.524Z,100.00
2024-01-27T05:57:38.246Z,100.00
2024-01-27T06:00:10.638Z,100.00
2024-01-27T06:02:39.530Z,100.00
2024-01-27T06:05:10.079Z,100.00
2024-01-27T06:07:41.065Z,100.00
2024-01-27T06:10:10.566Z,100.00
2024-01-27T06:12:40.207Z,100.00
2024-01-27T06:15:11.364Z,100.00
2024-01-27T06:17:40.809Z,100.00
2024-01-27T06:20:10.890Z,100.00
2024-01-27T06:22:41.197Z,100.00
2024-01-27T06:25:10.378Z,100.00
2024-01-27T06:27:39.256Z,100.00
2024-01-27T06:30:09.445Z,100.00
2024-01-27T06:32:38.377Z,100.00
2024-01-27T06:35:07.658Z,100.00
2024-01-27T06:37:36.409Z,100.00
2024-01-27T06:40:08.475Z,100.00
2024-01-27T06:42:37.527Z,100.00
2024-01-27T06:45:07.247Z,100.00
2024-01-27T06:47:36.158Z,100.00
2024-01-27T06:50:05.373Z,100.00
2024-01-27T06:52:34.144Z,100.00
2024-01-27T06:55:02.964Z,100.00
2024-01-27T06:57:33.099Z,100.00
2024-01-27T07:00:01.896Z,100.00
2024-01-27T07:02:30.937Z,100.00
2024-01-27T07:05:00.404Z,100.00
2024-01-27T07:07:30.363Z,100.00
2024-01-27T07:09:59.777Z,100.00
2024-01-27T07:12:28.599Z,100.00
2024-01-27T07:15:00.985Z,100.00
2024-01-27T07:17:30.183Z,100.00
2024-01-27T07:19:59.004Z,100.00
2024-01-27T07:22:27.798Z,100.00
2024-01-27T07:24:57.808Z,100.00
2024-01-27T07:27:26.565Z,100.00
2024-01-27T07:29:55.417Z,100.00
2024-01-27T07:32:27.267Z,100.00
2024-01-27T07:34:56.156Z,100.00
2024-01-27T07:37:24.966Z,100.00
2024-01-27T07:39:53.707Z,100.00
2024-01-27T07:42:22.445Z,100.00
2024-01-27T07:44:51.601Z,100.00
2024-01-27T07:47:20.357Z,100.00
2024-01-27T07:49:51.108Z,100.00
2024-01-27T07:52:19.868Z,100.00
2024-01-27T07:54:48.626Z,100.00
2024-01-27T07:57:17.497Z,100.00
2024-01-27T07:59:46.515Z,100.00
2024-01-27T08:02:15.250Z,100.00
2024-01-27T08:04:44.066Z,100.00
2024-01-27T08:07:16.076Z,100.00
2024-01-27T08:09:45.004Z,100.00
2024-01-27T08:12:13.900Z,100.00
2024-01-27T08:14:42.721Z,100.00
2024-01-27T08:17:11.481Z,100.00
2024-01-27T08:19:40.400Z,100.00
2024-01-27T08:22:10.415Z,100.00
2024-01-27T08:24:40.669Z,100.00
2024-01-27T08:27:09.481Z,100.00
2024-01-27T08:29:38.209Z,100.00
2024-01-27T08:32:07.844Z,100.00
2024-01-27T08:34:36.708Z,100.00
2024-01-27T08:37:16.651Z,100.00
2024-01-27T08:39:46.828Z,100.00
2024-01-27T08:42:16.241Z,100.00
2024-01-27T08:44:45.051Z,100.00
2024-01-27T08:47:13.787Z,100.00
2024-01-27T08:49:42.807Z,100.00
2024-01-27T08:52:12.128Z,100.00
2024-01-27T08:54:42.266Z,100.00
2024-01-27T08:57:12.453Z,100.00
2024-01-27T08:59:41.226Z,100.00
2024-01-27T09:02:09.993Z,100.00
2024-01-27T09:04:39.079Z,100.00
2024-01-27T09:07:07.901Z,100.00
2024-01-27T09:09:36.768Z,100.00
2024-01-27T09:12:05.879Z,100.00
2024-01-27T09:14:36.105Z,100.00
2024-01-27T09:17:05.319Z,100.00
2024-01-27T09:19:34.211Z,100.00
2024-01-27T09:22:03.092Z,100.00
2024-01-27T09:24:31.918Z,100.00
2024-01-27T09:27:00.882Z,100.00
2024-01-27T09:29:29.980Z,100.00
2024-01-27T09:32:00.450Z,100.00
2024-01-27T09:34:29.638Z,100.00
2024-01-27T09:36:58.753Z,100.00
2024-01-27T09:39:27.537Z,100.00
2024-01-27T09:41:56.807Z,100.00
2024-01-27T09:44:26.756Z,100.00
2024-01-27T09:46:56.035Z,100.00
2024-01-27T09:49:27.357Z,100.00
2024-01-27T09:51:57.932Z,100.00
2024-01-27T09:54:26.835Z,100.00
2024-01-27T09:56:56.744Z,100.00
2024-01-27T09:59:26.235Z,100.00
2024-01-27T10:01:55.075Z,100.00
2024-01-27T10:04:26.404Z,100.00
2024-01-27T10:06:55.252Z,100.00
2024-01-27T10:09:24.238Z,100.00
2024-01-27T10:11:53.737Z,100.00
2024-01-27T10:14:22.577Z,100.00
2024-01-27T10:16:51.278Z,100.00
2024-01-27T10:19:22.296Z,99.59
2024-01-27T10:22:02.321Z,98.86
2024-01-27T10:24:31.236Z,99.27
2024-01-27T10:27:02.215Z,98.51
2024-01-27T10:29:31.116Z,98.28
2024-01-27T10:32:09.480Z,97.70
2024-01-27T10:34:38.351Z,98.06
2024-01-27T10:37:08.527Z,97.26
2024-01-27T10:39:37.362Z,97.49
2024-01-27T10:42:07.286Z,96.82
2024-01-27T10:44:36.327Z,97.95
2024-01-27T10:47:06.998Z,97.52
2024-01-27T10:49:36.747Z,97.35
2024-01-27T10:52:12.287Z,97.10
2024-01-27T10:54:42.747Z,96.12
2024-01-27T10:57:12.200Z,94.43
2024-01-27T10:59:42.189Z,94.64
2024-01-27T11:02:15.354Z,94.45
2024-01-27T11:04:44.643Z,94.00
2024-01-27T11:07:14.932Z,93.07
2024-01-27T11:09:44.392Z,91.97
2024-01-27T11:12:13.836Z,91.07
2024-01-27T11:14:43.479Z,90.10
2024-01-27T11:17:12.351Z,91.29
2024-01-27T11:19:42.298Z,92.48
2024-01-27T11:22:28.041Z,91.04
2024-01-27T11:25:09.915Z,89.56
2024-01-27T11:27:38.855Z,90.00
2024-01-27T11:30:09.360Z,89.24
2024-01-27T11:32:38.716Z,85.71
2024-01-27T11:35:07.906Z,84.54
2024-01-27T11:37:40.044Z,83.97
2024-01-27T11:40:11.369Z,80.84
2024-01-27T11:42:40.558Z,81.59
2024-01-27T11:45:10.301Z,79.63
2024-01-27T11:47:39.309Z,79.32
2024-01-27T11:50:09.683Z,78.70
2024-01-27T11:52:39.972Z,78.98
2024-01-27T11:55:09.630Z,79.94
2024-01-27T11:57:38.737Z,78.38
2024-01-27T12:00:10.489Z,78.46
2024-01-27T12:02:40.004Z,82.54
2024-01-27T12:05:10.023Z,75.60
2024-01-27T12:07:41.244Z,73.97
2024-01-27T12:10:11.125Z,74.59
2024-01-27T12:12:40.387Z,74.58
2024-01-27T12:15:10.006Z,75.58
2024-01-27T12:17:39.358Z,74.06
2024-01-27T12:20:17.932Z,74.07
2024-01-27T12:22:48.596Z,72.96
2024-01-27T12:25:18.213Z,70.95
2024-01-27T12:27:47.401Z,71.38
2024-01-27T12:30:16.746Z,72.22
2024-01-27T12:32:45.709Z,71.55
2024-01-27T12:35:15.216Z,71.14
2024-01-27T12:37:45.690Z,72.09
2024-01-27T12:40:24.281Z,73.27
2024-01-27T12:42:53.707Z,70.98
2024-01-27T12:45:22.577Z,70.24
2024-01-27T12:47:52.016Z,71.99
2024-01-27T12:50:21.260Z,67.85
2024-01-27T12:52:50.270Z,65.99
2024-01-27T12:55:19.323Z,66.83
2024-01-27T12:57:50.112Z,67.83
2024-01-27T13:00:20.456Z,66.07
2024-01-27T13:02:49.291Z,69.42
2024-01-27T13:05:18.390Z,65.91
2024-01-27T13:07:47.225Z,68.38
2024-01-27T13:10:16.190Z,68.27
2024-01-27T13:12:46.288Z,67.59
2024-01-27T13:15:16.630Z,66.28
2024-01-27T13:17:45.600Z,64.38
2024-01-27T13:20:19.722Z,62.88
2024-01-27T13:22:50.043Z,62.71
2024-01-27T13:25:18.882Z,62.82
2024-01-27T13:27:48.073Z,61.66
2024-01-27T13:30:18.841Z,63.70
2024-01-27T13:32:48.160Z,61.63
2024-01-27T13:35:17.475Z,59.85
2024-01-27T13:37:47.324Z,59.09
2024-01-27T13:40:16.296Z,61.81
2024-01-27T13:42:45.204Z,61.28
2024-01-27T13:45:14.177Z,61.78
2024-01-27T13:47:44.726Z,62.75
2024-01-27T13:50:14.084Z,60.64
2024-01-27T13:52:44.752Z,60.26
2024-01-27T13:55:13.807Z,58.57
2024-01-27T13:57:43.194Z,61.43
2024-01-27T14:00:13.739Z,61.70
2024-01-27T14:02:44.434Z,59.52
2024-01-27T14:05:13.352Z,60.83
2024-01-27T14:07:42.291Z,60.33
2024-01-27T14:10:11.774Z,60.95
2024-01-27T14:12:40.816Z,61.32
2024-01-27T14:15:11.036Z,61.52
2024-01-27T14:17:40.049Z,63.75
2024-01-27T14:20:12.472Z,62.90
2024-01-27T14:22:41.589Z,64.89
2024-01-27T14:25:10.962Z,63.63
2024-01-27T14:27:39.995Z,63.54
2024-01-27T14:30:11.907Z,64.65
2024-01-27T14:32:40.987Z,63.67
2024-01-27T14:35:11.395Z,64.16
2024-01-27T14:37:40.638Z,64.00
2024-01-27T14:40:11.509Z,64.27
2024-01-27T14:42:42.007Z,63.91
2024-01-27T14:45:11.918Z,63.31
2024-01-27T14:47:41.130Z,62.62
2024-01-27T14:50:12.057Z,62.98
2024-01-27T14:52:41.190Z,63.47
2024-01-27T14:55:12.456Z,64.73
2024-01-27T14:57:42.000Z,62.13
2024-01-27T15:00:12.972Z,62.21
2024-01-27T15:02:42.080Z,63.26
2024-01-27T15:05:12.635Z,63.62
2024-01-27T15:07:41.782Z,64.80
2024-01-27T15:10:13.009Z,65.79
2024-01-27T15:12:42.131Z,67.65
2024-01-27T15:15:12.038Z,67.28
2024-01-27T15:17:41.139Z,68.98
2024-01-27T15:20:13.742Z,68.83
2024-01-27T15:22:45.037Z,69.83
2024-01-27T15:25:14.916Z,70.64
2024-01-27T15:27:44.696Z,71.54
2024-01-27T15:30:15.862Z,72.18
2024-01-27T15:32:45.207Z,71.47
2024-01-27T15:35:16.195Z,73.27
2024-01-27T15:37:45.225Z,71.76
2024-01-27T15:40:14.592Z,71.27
2024-01-27T15:42:43.916Z,71.68
2024-01-27T15:45:12.879Z,71.88
2024-01-27T15:47:43.956Z,73.12
2024-01-27T15:50:15.126Z,73.96
2024-01-27T15:52:45.725Z,73.64
2024-01-27T15:55:15.917Z,73.43
2024-01-27T15:57:44.894Z,73.20
2024-01-27T16:00:14.922Z,73.66
2024-01-27T16:02:43.863Z,73.85
2024-01-27T16:05:12.752Z,75.33
2024-01-27T16:07:41.776Z,75.32
2024-01-27T16:10:12.249Z,76.27
2024-01-27T16:12:41.116Z,76.99
2024-01-27T16:15:10.830Z,78.85
2024-01-27T16:17:39.783Z,79.02
2024-01-27T16:20:09.864Z,79.69
2024-01-27T16:22:39.046Z,80.30
2024-01-27T16:25:08.688Z,81.07
2024-01-27T16:27:39.004Z,80.96
2024-01-27T16:30:09.149Z,81.23
2024-01-27T16:32:38.066Z,81.66
2024-01-27T16:35:08.263Z,82.02
2024-01-27T16:37:37.372Z,82.62
2024-01-27T16:40:07.456Z,82.34
2024-01-27T16:42:37.823Z,82.40
2024-01-27T16:45:10.655Z,82.63
2024-01-27T16:47:39.645Z,82.76
2024-01-27T16:50:09.106Z,83.05
2024-01-27T16:52:38.362Z,83.33
2024-01-27T16:55:07.953Z,83.85
2024-01-27T16:57:36.944Z,83.79
2024-01-27T17:00:30.010Z,84.41
2024-01-27T17:02:59.067Z,84.45
2024-01-27T17:05:28.140Z,84.94
2024-01-27T17:07:57.108Z,84.56
2024-01-27T17:10:26.345Z,84.64
2024-01-27T17:12:55.339Z,85.32
2024-01-27T17:15:25.782Z,84.96
2024-01-27T17:17:54.715Z,85.21
2024-01-27T17:20:24.605Z,85.06
2024-01-27T17:22:53.436Z,85.28
2024-01-27T17:25:22.636Z,85.05
2024-01-27T17:27:51.680Z,85.21
2024-01-27T17:30:20.556Z,85.57
2024-01-27T17:32:50.810Z,84.60
2024-01-27T17:35:19.771Z,85.73
2024-01-27T17:37:48.573Z,85.44
2024-01-27T17:40:17.820Z,86.46
2024-01-27T17:42:47.550Z,86.91
2024-01-27T17:45:16.799Z,87.41
2024-01-27T17:47:50.421Z,88.01
2024-01-27T17:50:21.288Z,89.01
2024-01-27T17:52:50.682Z,88.08
2024-01-27T17:55:20.723Z,87.84
2024-01-27T17:57:49.647Z,87.65
2024-01-27T18:00:19.658Z,87.44
2024-01-27T18:02:48.600Z,88.61
2024-01-27T18:05:17.432Z,90.10
2024-01-27T18:07:47.585Z,90.57
2024-01-27T18:10:16.518Z,90.68
2024-01-27T18:12:47.602Z,91.69
2024-01-27T18:15:16.783Z,90.88
2024-01-27T18:17:45.517Z,90.81
2024-01-27T18:20:14.636Z,90.86
2024-01-27T18:22:43.597Z,90.14
2024-01-27T18:25:14.113Z,89.03
2024-01-27T18:27:44.170Z,90.18
2024-01-27T18:30:16.129Z,90.12
2024-01-27T18:32:45.109Z,90.06
2024-01-27T18:35:14.192Z,90.30
2024-01-27T18:37:43.186Z,90.87
2024-01-27T18:40:13.620Z,90.29
2024-01-27T18:45:40.212Z,89.16
2024-01-27T18:48:10.057Z,88.66
2024-01-27T18:50:40.469Z,88.93
2024-01-27T18:53:11.198Z,89.65
2024-01-27T18:55:42.122Z,90.60
2024-01-27T18:58:11.320Z,90.73
2024-01-27T19:00:40.324Z,90.51
2024-01-27T19:03:10.546Z,90.91
2024-01-27T19:05:39.545Z,91.14
2024-01-27T19:08:08.358Z,91.58
2024-01-27T19:10:37.169Z,90.94
2024-01-27T19:13:07.426Z,90.00
2024-01-27T19:15:36.325Z,89.94
2024-01-27T19:18:05.301Z,89.23
2024-01-27T19:20:34.250Z,89.47
2024-01-27T19:23:04.604Z,89.06
2024-01-27T19:25:34.265Z,89.02
2024-01-27T19:28:03.213Z,89.65
2024-01-27T19:30:33.422Z,89.17
2024-01-27T19:33:02.644Z,88.62
2024-01-27T19:35:31.753Z,88.78
2024-01-27T19:38:01.344Z,88.14
2024-01-27T19:40:32.391Z,88.62
2024-01-27T19:43:01.349Z,88.95
2024-01-27T19:45:30.316Z,89.22
2024-01-27T19:48:00.595Z,88.44
2024-01-27T19:50:29.637Z,88.22
2024-01-27T19:52:58.587Z,87.85
2024-01-27T19:55:27.411Z,87.65
2024-01-27T19:57:56.254Z,87.50
2024-01-27T20:00:30.675Z,86.92
2024-01-27T20:03:01.456Z,86.62
2024-01-27T20:05:30.338Z,87.06
2024-01-27T20:07:59.121Z,87.52
2024-01-27T20:10:27.942Z,86.90
2024-01-27T20:12:59.510Z,86.84
2024-01-27T20:15:28.356Z,86.90
2024-01-27T20:17:57.247Z,87.39
2024-01-27T20:20:28.000Z,87.92
2024-01-27T20:22:56.899Z,87.97
2024-01-27T20:25:25.769Z,86.66
2024-01-27T20:27:54.594Z,86.97
2024-01-27T20:30:23.486Z,86.90
2024-01-27T20:32:57.320Z,87.07
2024-01-27T20:35:28.279Z,87.09
2024-01-27T20:37:57.418Z,87.73
2024-01-27T20:40:27.765Z,87.73
2024-01-27T20:42:56.470Z,87.35
2024-01-27T20:45:26.283Z,88.27
2024-01-27T20:47:55.217Z,87.71
2024-01-27T20:50:26.414Z,88.28
2024-01-27T20:52:57.382Z,87.35
2024-01-27T20:55:27.824Z,88.38
2024-01-27T20:57:57.391Z,88.73
2024-01-27T21:00:26.825Z,87.85
2024-01-27T21:02:55.738Z,88.46
2024-01-27T21:05:24.599Z,88.41
2024-01-27T21:07:53.406Z,89.15
2024-01-27T21:10:23.750Z,88.69
2024-01-27T21:12:52.650Z,88.23
2024-01-27T21:15:21.575Z,88.02
2024-01-27T21:17:50.809Z,88.37
2024-01-27T21:20:19.574Z,89.07
2024-01-27T21:22:48.395Z,88.20
2024-01-27T21:25:17.380Z,87.81
2024-01-27T21:27:47.666Z,88.28
2024-01-27T21:30:16.623Z,88.75
2024-01-27T21:32:45.856Z,89.30
2024-01-27T21:35:14.878Z,89.10
2024-01-27T21:37:43.651Z,89.56
2024-01-27T21:41:08.757Z,90.95
2024-01-27T21:43:38.938Z,90.69
2024-01-27T21:46:09.078Z,90.68
2024-01-27T21:48:38.772Z,90.92
2024-01-27T21:51:10.906Z,90.19
2024-01-27T21:53:41.651Z,90.64
2024-01-27T21:56:12.140Z,89.53
2024-01-27T21:58:42.734Z,91.26
2024-01-27T22:01:12.861Z,89.87
2024-01-27T22:03:42.278Z,90.03
2024-01-27T22:06:11.323Z,91.13
2024-01-27T22:08:40.342Z,92.51
2024-01-27T22:11:09.223Z,93.41
2024-01-27T22:13:39.186Z,92.90
2024-01-27T22:16:09.631Z,93.37
2024-01-27T22:18:38.560Z,93.21
2024-01-27T22:21:07.699Z,94.05
2024-01-27T22:23:36.592Z,92.92
2024-01-27T22:26:05.713Z,92.66
2024-01-27T22:28:34.608Z,93.45
2024-01-27T22:31:04.376Z,94.05
2024-01-27T22:33:35.131Z,94.72
2024-01-27T22:36:04.444Z,93.82
2024-01-27T22:38:33.251Z,94.01
2024-01-27T22:41:02.262Z,94.13
2024-01-27T22:43:31.118Z,94.04
2024-01-27T22:45:59.948Z,95.11
2024-01-27T22:48:30.374Z,95.71
2024-01-27T22:51:00.631Z,95.37
2024-01-27T22:53:29.394Z,94.97
2024-01-27T22:55:58.282Z,93.87
2024-01-27T22:58:32.455Z,93.73
2024-01-27T23:01:01.686Z,93.41
2024-01-27T23:03:30.906Z,92.85
2024-01-27T23:06:01.243Z,94.23
2024-01-27T23:08:30.055Z,93.94
2024-01-27T23:10:59.293Z,93.13
2024-01-27T23:13:28.087Z,93.49
2024-01-27T23:15:56.972Z,94.65
2024-01-27T23:18:25.898Z,94.86
2024-01-27T23:20:54.863Z,95.03
2024-01-27T23:23:25.968Z,95.69
2024-01-27T23:25:54.767Z,95.90
2024-01-27T23:28:23.603Z,96.74
2024-01-27T23:30:52.536Z,96.28
2024-01-27T23:33:21.907Z,95.30
2024-01-27T23:35:50.875Z,95.61
2024-01-27T23:38:21.397Z,95.12
2024-01-27T23:40:51.608Z,95.17
2024-01-27T23:43:20.468Z,95.58
2024-01-27T23:45:50.642Z,96.43
2024-01-27T23:48:20.004Z,96.63
2024-01-27T23:50:48.873Z,96.62
2024-01-27T23:53:21.462Z,96.94
2024-01-27T23:55:51.632Z,97.63
2024-01-27T23:58:20.608Z,97.31
